sensor_id;sensor_type;location;lat;lon;timestamp;P1;durP1;ratioP1;P2;durP2;ratioP2
11238;SDS011;5677;48.488;13.436;2022-12-29T00:00:16;3.67;;;3.20;;
11238;SDS011;5677;48.488;13.436;2022-12-29T00:02:43;2.87;;;2.60;;
11238;SDS011;5677;48.488;13.436;2022-12-29T00:05:10;3.00;;;2.70;;
11238;SDS011;5677;48.488;13.436;2022-12-29T00:07:37;2.97;;;2.67;;
11238;SDS011;5677;48.488;13.436;2022-12-29T00:10:04;3.63;;;2.83;;
11238;SDS011;5677;48.488;13.436;2022-12-29T00:12:31;3.10;;;2.70;;
11238;SDS011;5677;48.488;13.436;2022-12-29T00:15:13;2.70;;;2.50;;
11238;SDS011;5677;48.488;13.436;2022-12-29T00:17:58;2.77;;;2.57;;
11238;SDS011;5677;48.488;13.436;2022-12-29T00:20:24;3.60;;;2.60;;
11238;SDS011;5677;48.488;13.436;2022-12-29T00:23:09;3.33;;;2.57;;
11238;SDS011;5677;48.488;13.436;2022-12-29T00:25:53;2.83;;;2.53;;
11238;SDS011;5677;48.488;13.436;2022-12-29T00:28:37;3.67;;;2.73;;
11238;SDS011;5677;48.488;13.436;2022-12-29T00:31:22;2.67;;;2.37;;
11238;SDS011;5677;48.488;13.436;2022-12-29T00:34:07;3.07;;;2.70;;
11238;SDS011;5677;48.488;13.436;2022-12-29T00:36:54;3.03;;;2.60;;
11238;SDS011;5677;48.488;13.436;2022-12-29T00:39:20;3.17;;;2.50;;
11238;SDS011;5677;48.488;13.436;2022-12-29T00:42:05;3.77;;;2.67;;
11238;SDS011;5677;48.488;13.436;2022-12-29T00:44:59;3.40;;;2.43;;
11238;SDS011;5677;48.488;13.436;2022-12-29T00:47:27;3.97;;;2.57;;
11238;SDS011;5677;48.488;13.436;2022-12-29T00:49:54;2.77;;;2.53;;
11238;SDS011;5677;48.488;13.436;2022-12-29T00:52:19;2.83;;;2.30;;
11238;SDS011;5677;48.488;13.436;2022-12-29T00:54:46;2.63;;;2.40;;
11238;SDS011;5677;48.488;13.436;2022-12-29T00:57:13;2.60;;;2.30;;
11238;SDS011;5677;48.488;13.436;2022-12-29T00:59:40;2.80;;;2.60;;
11238;SDS011;5677;48.488;13.436;2022-12-29T01:02:08;2.80;;;2.50;;
11238;SDS011;5677;48.488;13.436;2022-12-29T01:04:37;2.80;;;2.50;;
11238;SDS011;5677;48.488;13.436;2022-12-29T01:07:03;2.77;;;2.57;;
11238;SDS011;5677;48.488;13.436;2022-12-29T01:09:31;2.63;;;2.43;;
11238;SDS011;5677;48.488;13.436;2022-12-29T01:12:15;2.67;;;2.47;;
11238;SDS011;5677;48.488;13.436;2022-12-29T01:15:02;3.07;;;2.50;;
11238;SDS011;5677;48.488;13.436;2022-12-29T01:17:29;2.47;;;2.27;;
11238;SDS011;5677;48.488;13.436;2022-12-29T01:19:58;4.17;;;2.50;;
11238;SDS011;5677;48.488;13.436;2022-12-29T01:22:24;2.97;;;2.63;;
11238;SDS011;5677;48.488;13.436;2022-12-29T01:24:51;2.70;;;2.50;;
11238;SDS011;5677;48.488;13.436;2022-12-29T01:27:18;2.93;;;2.20;;
11238;SDS011;5677;48.488;13.436;2022-12-29T01:29:44;3.33;;;2.83;;
11238;SDS011;5677;48.488;13.436;2022-12-29T01:32:11;2.33;;;2.13;;
11238;SDS011;5677;48.488;13.436;2022-12-29T01:34:38;3.23;;;2.40;;
11238;SDS011;5677;48.488;13.436;2022-12-29T01:37:06;3.23;;;2.40;;
11238;SDS011;5677;48.488;13.436;2022-12-29T01:39:32;3.27;;;2.50;;
11238;SDS011;5677;48.488;13.436;2022-12-29T01:41:59;2.93;;;2.60;;
11238;SDS011;5677;48.488;13.436;2022-12-29T01:47:28;2.80;;;2.20;;
11238;SDS011;5677;48.488;13.436;2022-12-29T01:50:00;3.10;;;2.63;;
11238;SDS011;5677;48.488;13.436;2022-12-29T01:52:33;3.23;;;2.60;;
11238;SDS011;5677;48.488;13.436;2022-12-29T01:55:03;4.63;;;2.50;;
11238;SDS011;5677;48.488;13.436;2022-12-29T01:57:33;2.60;;;2.40;;
11238;SDS011;5677;48.488;13.436;2022-12-29T02:00:03;3.00;;;2.70;;
11238;SDS011;5677;48.488;13.436;2022-12-29T02:02:33;2.83;;;2.50;;
11238;SDS011;5677;48.488;13.436;2022-12-29T02:05:01;3.33;;;2.77;;
11238;SDS011;5677;48.488;13.436;2022-12-29T02:07:36;3.00;;;2.70;;
11238;SDS011;5677;48.488;13.436;2022-12-29T02:10:04;2.83;;;2.50;;
11238;SDS011;5677;48.488;13.436;2022-12-29T02:12:31;2.60;;;2.40;;
11238;SDS011;5677;48.488;13.436;2022-12-29T02:14:59;2.97;;;2.50;;
11238;SDS011;5677;48.488;13.436;2022-12-29T02:17:31;2.43;;;2.00;;
11238;SDS011;5677;48.488;13.436;2022-12-29T02:23:29;3.00;;;2.50;;
11238;SDS011;5677;48.488;13.436;2022-12-29T02:26:15;2.93;;;2.63;;
11238;SDS011;5677;48.488;13.436;2022-12-29T02:29:18;2.67;;;2.47;;
11238;SDS011;5677;48.488;13.436;2022-12-29T02:31:57;2.60;;;2.40;;
11238;SDS011;5677;48.488;13.436;2022-12-29T02:34:30;2.60;;;2.40;;
11238;SDS011;5677;48.488;13.436;2022-12-29T02:37:04;2.50;;;2.30;;
11238;SDS011;5677;48.488;13.436;2022-12-29T02:39:38;2.07;;;1.87;;
11238;SDS011;5677;48.488;13.436;2022-12-29T02:42:11;2.63;;;2.13;;
11238;SDS011;5677;48.488;13.436;2022-12-29T02:44:51;2.60;;;2.40;;
11238;SDS011;5677;48.488;13.436;2022-12-29T02:47:23;2.90;;;2.60;;
11238;SDS011;5677;48.488;13.436;2022-12-29T02:49:57;2.67;;;2.47;;
11238;SDS011;5677;48.488;13.436;2022-12-29T02:52:30;3.53;;;2.20;;
11238;SDS011;5677;48.488;13.436;2022-12-29T02:54:59;2.43;;;2.23;;
11238;SDS011;5677;48.488;13.436;2022-12-29T02:57:29;2.47;;;2.27;;
11238;SDS011;5677;48.488;13.436;2022-12-29T03:00:00;2.60;;;2.30;;
11238;SDS011;5677;48.488;13.436;2022-12-29T03:02:42;2.67;;;2.47;;
11238;SDS011;5677;48.488;13.436;2022-12-29T03:05:26;2.47;;;2.27;;
11238;SDS011;5677;48.488;13.436;2022-12-29T03:08:11;2.50;;;2.30;;
11238;SDS011;5677;48.488;13.436;2022-12-29T03:10:46;2.33;;;2.10;;
11238;SDS011;5677;48.488;13.436;2022-12-29T03:13:20;2.63;;;2.43;;
11238;SDS011;5677;48.488;13.436;2022-12-29T03:16:12;2.60;;;2.37;;
11238;SDS011;5677;48.488;13.436;2022-12-29T03:18:48;2.40;;;2.20;;
11238;SDS011;5677;48.488;13.436;2022-12-29T03:21:23;2.50;;;2.20;;
11238;SDS011;5677;48.488;13.436;2022-12-29T03:24:11;2.87;;;2.30;;
11238;SDS011;5677;48.488;13.436;2022-12-29T03:26:39;2.03;;;1.93;;
11238;SDS011;5677;48.488;13.436;2022-12-29T03:29:07;2.63;;;2.20;;
11238;SDS011;5677;48.488;13.436;2022-12-29T03:31:35;1.97;;;1.83;;
11238;SDS011;5677;48.488;13.436;2022-12-29T03:34:05;2.60;;;2.40;;
11238;SDS011;5677;48.488;13.436;2022-12-29T03:36:35;2.47;;;2.27;;
11238;SDS011;5677;48.488;13.436;2022-12-29T03:39:10;2.53;;;2.33;;
11238;SDS011;5677;48.488;13.436;2022-12-29T03:41:39;2.40;;;2.20;;
11238;SDS011;5677;48.488;13.436;2022-12-29T03:44:09;2.80;;;2.23;;
11238;SDS011;5677;48.488;13.436;2022-12-29T03:46:37;3.73;;;2.23;;
11238;SDS011;5677;48.488;13.436;2022-12-29T03:49:04;2.23;;;2.03;;
11238;SDS011;5677;48.488;13.436;2022-12-29T03:51:32;2.70;;;2.40;;
11238;SDS011;5677;48.488;13.436;2022-12-29T03:53:58;2.50;;;2.17;;
11238;SDS011;5677;48.488;13.436;2022-12-29T03:56:25;2.70;;;2.50;;
11238;SDS011;5677;48.488;13.436;2022-12-29T03:58:52;2.40;;;2.20;;
11238;SDS011;5677;48.488;13.436;2022-12-29T04:01:19;2.93;;;2.20;;
11238;SDS011;5677;48.488;13.436;2022-12-29T04:03:45;2.30;;;2.10;;
11238;SDS011;5677;48.488;13.436;2022-12-29T04:06:13;2.97;;;2.27;;
11238;SDS011;5677;48.488;13.436;2022-12-29T04:08:40;2.77;;;2.40;;
11238;SDS011;5677;48.488;13.436;2022-12-29T04:11:07;2.97;;;2.30;;
11238;SDS011;5677;48.488;13.436;2022-12-29T04:13:34;3.03;;;2.43;;
11238;SDS011;5677;48.488;13.436;2022-12-29T04:16:00;2.10;;;1.90;;
11238;SDS011;5677;48.488;13.436;2022-12-29T04:18:27;3.07;;;2.17;;
11238;SDS011;5677;48.488;13.436;2022-12-29T04:20:54;2.07;;;1.87;;
11238;SDS011;5677;48.488;13.436;2022-12-29T04:23:29;2.40;;;2.20;;
11238;SDS011;5677;48.488;13.436;2022-12-29T04:25:57;2.33;;;2.13;;
11238;SDS011;5677;48.488;13.436;2022-12-29T04:28:24;1.87;;;1.77;;
11238;SDS011;5677;48.488;13.436;2022-12-29T04:30:51;2.80;;;2.40;;
11238;SDS011;5677;48.488;13.436;2022-12-29T04:33:18;2.90;;;2.30;;
11238;SDS011;5677;48.488;13.436;2022-12-29T04:35:45;2.37;;;2.10;;
11238;SDS011;5677;48.488;13.436;2022-12-29T04:38:12;2.37;;;2.17;;
11238;SDS011;5677;48.488;13.436;2022-12-29T04:40:40;2.60;;;2.40;;
11238;SDS011;5677;48.488;13.436;2022-12-29T04:43:09;2.00;;;1.90;;
11238;SDS011;5677;48.488;13.436;2022-12-29T04:45:36;2.10;;;1.90;;
11238;SDS011;5677;48.488;13.436;2022-12-29T04:48:03;2.70;;;2.17;;
11238;SDS011;5677;48.488;13.436;2022-12-29T04:50:30;2.40;;;2.20;;
11238;SDS011;5677;48.488;13.436;2022-12-29T04:52:57;2.90;;;2.10;;
11238;SDS011;5677;48.488;13.436;2022-12-29T04:55:23;2.30;;;2.10;;
11238;SDS011;5677;48.488;13.436;2022-12-29T04:57:51;3.40;;;2.20;;
11238;SDS011;5677;48.488;13.436;2022-12-29T05:00:18;2.23;;;2.03;;
11238;SDS011;5677;48.488;13.436;2022-12-29T05:02:45;2.50;;;2.20;;
11238;SDS011;5677;48.488;13.436;2022-12-29T05:05:12;2.40;;;2.10;;
11238;SDS011;5677;48.488;13.436;2022-12-29T05:07:38;2.50;;;2.20;;
11238;SDS011;5677;48.488;13.436;2022-12-29T05:10:06;2.67;;;2.17;;
11238;SDS011;5677;48.488;13.436;2022-12-29T05:12:34;3.03;;;2.03;;
11238;SDS011;5677;48.488;13.436;2022-12-29T05:15:04;2.37;;;2.10;;
11238;SDS011;5677;48.488;13.436;2022-12-29T05:17:32;3.03;;;2.20;;
11238;SDS011;5677;48.488;13.436;2022-12-29T05:19:59;2.00;;;1.90;;
11238;SDS011;5677;48.488;13.436;2022-12-29T05:22:26;2.33;;;2.13;;
11238;SDS011;5677;48.488;13.436;2022-12-29T05:24:53;2.73;;;1.90;;
11238;SDS011;5677;48.488;13.436;2022-12-29T05:27:19;1.73;;;1.60;;
11238;SDS011;5677;48.488;13.436;2022-12-29T05:29:46;3.00;;;1.97;;
11238;SDS011;5677;48.488;13.436;2022-12-29T05:32:14;2.20;;;2.00;;
11238;SDS011;5677;48.488;13.436;2022-12-29T05:34:41;2.50;;;2.30;;
11238;SDS011;5677;48.488;13.436;2022-12-29T05:37:08;4.27;;;2.33;;
11238;SDS011;5677;48.488;13.436;2022-12-29T05:39:34;2.37;;;1.90;;
11238;SDS011;5677;48.488;13.436;2022-12-29T05:42:01;2.83;;;1.93;;
11238;SDS011;5677;48.488;13.436;2022-12-29T05:44:28;2.63;;;1.90;;
11238;SDS011;5677;48.488;13.436;2022-12-29T05:46:54;2.50;;;2.30;;
11238;SDS011;5677;48.488;13.436;2022-12-29T05:49:22;4.40;;;2.67;;
11238;SDS011;5677;48.488;13.436;2022-12-29T05:51:49;5.60;;;2.20;;
11238;SDS011;5677;48.488;13.436;2022-12-29T05:54:16;4.50;;;2.70;;
11238;SDS011;5677;48.488;13.436;2022-12-29T05:56:43;5.47;;;2.57;;
11238;SDS011;5677;48.488;13.436;2022-12-29T05:59:09;2.73;;;2.47;;
11238;SDS011;5677;48.488;13.436;2022-12-29T06:01:36;3.03;;;2.60;;
11238;SDS011;5677;48.488;13.436;2022-12-29T06:04:03;3.20;;;2.80;;
11238;SDS011;5677;48.488;13.436;2022-12-29T06:06:31;3.70;;;2.70;;
11238;SDS011;5677;48.488;13.436;2022-12-29T06:08:58;3.50;;;3.17;;
11238;SDS011;5677;48.488;13.436;2022-12-29T06:11:25;3.70;;;2.90;;
11238;SDS011;5677;48.488;13.436;2022-12-29T06:13:52;2.93;;;2.63;;
11238;SDS011;5677;48.488;13.436;2022-12-29T06:16:18;4.33;;;3.17;;
11238;SDS011;5677;48.488;13.436;2022-12-29T06:18:45;5.80;;;2.70;;
11238;SDS011;5677;48.488;13.436;2022-12-29T06:21:12;3.17;;;2.87;;
11238;SDS011;5677;48.488;13.436;2022-12-29T06:23:40;2.90;;;2.53;;
11238;SDS011;5677;48.488;13.436;2022-12-29T06:26:07;3.93;;;2.70;;
11238;SDS011;5677;48.488;13.436;2022-12-29T06:28:34;3.50;;;3.03;;
11238;SDS011;5677;48.488;13.436;2022-12-29T06:31:00;3.80;;;2.57;;
11238;SDS011;5677;48.488;13.436;2022-12-29T06:33:28;3.13;;;2.60;;
11238;SDS011;5677;48.488;13.436;2022-12-29T06:35:55;3.00;;;2.30;;
11238;SDS011;5677;48.488;13.436;2022-12-29T06:38:22;3.40;;;3.10;;
11238;SDS011;5677;48.488;13.436;2022-12-29T06:40:50;3.10;;;2.80;;
11238;SDS011;5677;48.488;13.436;2022-12-29T06:43:17;2.90;;;2.60;;
11238;SDS011;5677;48.488;13.436;2022-12-29T06:45:44;2.97;;;2.60;;
11238;SDS011;5677;48.488;13.436;2022-12-29T06:48:11;4.03;;;2.80;;
11238;SDS011;5677;48.488;13.436;2022-12-29T06:50:37;2.87;;;2.67;;
11238;SDS011;5677;48.488;13.436;2022-12-29T06:53:04;3.50;;;2.80;;
11238;SDS011;5677;48.488;13.436;2022-12-29T06:55:31;3.67;;;2.50;;
11238;SDS011;5677;48.488;13.436;2022-12-29T06:57:59;4.33;;;3.30;;
11238;SDS011;5677;48.488;13.436;2022-12-29T07:00:26;3.57;;;2.87;;
11238;SDS011;5677;48.488;13.436;2022-12-29T07:02:54;3.47;;;3.10;;
11238;SDS011;5677;48.488;13.436;2022-12-29T07:05:22;3.70;;;3.30;;
11238;SDS011;5677;48.488;13.436;2022-12-29T07:07:49;3.60;;;3.13;;
11238;SDS011;5677;48.488;13.436;2022-12-29T07:10:17;4.17;;;3.17;;
11238;SDS011;5677;48.488;13.436;2022-12-29T07:12:44;4.20;;;3.80;;
11238;SDS011;5677;48.488;13.436;2022-12-29T07:15:12;3.10;;;2.90;;
11238;SDS011;5677;48.488;13.436;2022-12-29T07:17:38;3.93;;;3.13;;
11238;SDS011;5677;48.488;13.436;2022-12-29T07:20:06;4.57;;;3.50;;
11238;SDS011;5677;48.488;13.436;2022-12-29T07:22:33;4.97;;;4.10;;
11238;SDS011;5677;48.488;13.436;2022-12-29T07:25:01;4.20;;;3.50;;
11238;SDS011;5677;48.488;13.436;2022-12-29T07:27:28;3.47;;;3.17;;
11238;SDS011;5677;48.488;13.436;2022-12-29T07:29:55;4.27;;;3.43;;
11238;SDS011;5677;48.488;13.436;2022-12-29T07:32:23;4.07;;;2.93;;
11238;SDS011;5677;48.488;13.436;2022-12-29T07:34:49;5.20;;;2.87;;
11238;SDS011;5677;48.488;13.436;2022-12-29T07:37:16;6.23;;;2.67;;
11238;SDS011;5677;48.488;13.436;2022-12-29T07:39:43;3.10;;;2.80;;
11238;SDS011;5677;48.488;13.436;2022-12-29T07:42:10;4.03;;;2.50;;
11238;SDS011;5677;48.488;13.436;2022-12-29T07:44:37;3.90;;;2.80;;
11238;SDS011;5677;48.488;13.436;2022-12-29T07:47:04;3.20;;;2.53;;
11238;SDS011;5677;48.488;13.436;2022-12-29T07:49:32;2.63;;;2.03;;
11238;SDS011;5677;48.488;13.436;2022-12-29T07:51:59;6.77;;;2.60;;
11238;SDS011;5677;48.488;13.436;2022-12-29T07:54:25;3.40;;;2.63;;
11238;SDS011;5677;48.488;13.436;2022-12-29T07:56:52;4.30;;;2.53;;
11238;SDS011;5677;48.488;13.436;2022-12-29T07:59:20;2.73;;;2.53;;
11238;SDS011;5677;48.488;13.436;2022-12-29T08:01:46;2.50;;;2.30;;
11238;SDS011;5677;48.488;13.436;2022-12-29T08:04:13;3.13;;;2.20;;
11238;SDS011;5677;48.488;13.436;2022-12-29T08:06:41;3.20;;;2.50;;
11238;SDS011;5677;48.488;13.436;2022-12-29T08:09:10;3.23;;;2.40;;
11238;SDS011;5677;48.488;13.436;2022-12-29T08:11:37;2.80;;;2.27;;
11238;SDS011;5677;48.488;13.436;2022-12-29T08:14:05;3.97;;;2.30;;
11238;SDS011;5677;48.488;13.436;2022-12-29T08:16:32;2.60;;;2.40;;
11238;SDS011;5677;48.488;13.436;2022-12-29T08:18:59;3.27;;;2.30;;
11238;SDS011;5677;48.488;13.436;2022-12-29T08:21:26;4.00;;;2.30;;
11238;SDS011;5677;48.488;13.436;2022-12-29T08:23:55;4.57;;;2.77;;
11238;SDS011;5677;48.488;13.436;2022-12-29T08:26:22;4.63;;;2.57;;
11238;SDS011;5677;48.488;13.436;2022-12-29T08:28:49;5.77;;;2.60;;
11238;SDS011;5677;48.488;13.436;2022-12-29T08:31:17;3.30;;;3.00;;
11238;SDS011;5677;48.488;13.436;2022-12-29T08:33:44;5.87;;;3.43;;
11238;SDS011;5677;48.488;13.436;2022-12-29T08:36:11;4.07;;;2.80;;
11238;SDS011;5677;48.488;13.436;2022-12-29T08:38:40;4.90;;;2.87;;
11238;SDS011;5677;48.488;13.436;2022-12-29T08:41:09;5.40;;;3.00;;
11238;SDS011;5677;48.488;13.436;2022-12-29T08:43:36;11.63;;;3.00;;
11238;SDS011;5677;48.488;13.436;2022-12-29T08:46:03;8.43;;;2.53;;
11238;SDS011;5677;48.488;13.436;2022-12-29T08:48:30;3.13;;;2.80;;
11238;SDS011;5677;48.488;13.436;2022-12-29T08:50:56;2.77;;;2.40;;
11238;SDS011;5677;48.488;13.436;2022-12-29T08:53:23;4.93;;;2.80;;
11238;SDS011;5677;48.488;13.436;2022-12-29T08:55:55;3.87;;;2.43;;
11238;SDS011;5677;48.488;13.436;2022-12-29T08:58:24;5.03;;;2.43;;
11238;SDS011;5677;48.488;13.436;2022-12-29T09:00:51;4.67;;;2.80;;
11238;SDS011;5677;48.488;13.436;2022-12-29T09:03:19;5.27;;;2.70;;
11238;SDS011;5677;48.488;13.436;2022-12-29T09:05:47;3.17;;;2.37;;
11238;SDS011;5677;48.488;13.436;2022-12-29T09:08:14;3.77;;;2.60;;
11238;SDS011;5677;48.488;13.436;2022-12-29T09:10:42;4.17;;;2.73;;
11238;SDS011;5677;48.488;13.436;2022-12-29T09:13:09;3.23;;;2.57;;
11238;SDS011;5677;48.488;13.436;2022-12-29T09:15:37;2.63;;;2.40;;
11238;SDS011;5677;48.488;13.436;2022-12-29T09:18:04;4.73;;;3.00;;
11238;SDS011;5677;48.488;13.436;2022-12-29T09:20:31;3.60;;;2.50;;
11238;SDS011;5677;48.488;13.436;2022-12-29T09:22:58;5.60;;;2.70;;
11238;SDS011;5677;48.488;13.436;2022-12-29T09:25:25;2.93;;;2.60;;
11238;SDS011;5677;48.488;13.436;2022-12-29T09:27:52;3.53;;;2.53;;
11238;SDS011;5677;48.488;13.436;2022-12-29T09:30:20;7.60;;;4.60;;
11238;SDS011;5677;48.488;13.436;2022-12-29T09:32:49;6.40;;;5.80;;
11238;SDS011;5677;48.488;13.436;2022-12-29T09:35:16;5.33;;;4.47;;
11238;SDS011;5677;48.488;13.436;2022-12-29T09:37:43;8.83;;;4.93;;
11238;SDS011;5677;48.488;13.436;2022-12-29T09:40:23;9.33;;;4.57;;
11238;SDS011;5677;48.488;13.436;2022-12-29T09:42:59;7.90;;;3.80;;
11238;SDS011;5677;48.488;13.436;2022-12-29T09:45:36;5.23;;;3.83;;
11238;SDS011;5677;48.488;13.436;2022-12-29T09:48:11;5.27;;;4.13;;
11238;SDS011;5677;48.488;13.436;2022-12-29T09:50:44;4.23;;;3.77;;
11238;SDS011;5677;48.488;13.436;2022-12-29T09:53:17;4.23;;;3.83;;
11238;SDS011;5677;48.488;13.436;2022-12-29T09:55:48;5.57;;;4.00;;
11238;SDS011;5677;48.488;13.436;2022-12-29T09:58:21;6.00;;;3.80;;
11238;SDS011;5677;48.488;13.436;2022-12-29T10:00:56;8.20;;;4.07;;
11238;SDS011;5677;48.488;13.436;2022-12-29T10:03:32;11.30;;;3.90;;
11238;SDS011;5677;48.488;13.436;2022-12-29T10:06:10;8.13;;;3.37;;
11238;SDS011;5677;48.488;13.436;2022-12-29T10:08:41;6.43;;;3.47;;
11238;SDS011;5677;48.488;13.436;2022-12-29T10:11:18;3.87;;;3.17;;
11238;SDS011;5677;48.488;13.436;2022-12-29T10:13:58;5.80;;;3.30;;
11238;SDS011;5677;48.488;13.436;2022-12-29T10:16:37;5.73;;;3.00;;
11238;SDS011;5677;48.488;13.436;2022-12-29T10:19:14;7.67;;;3.33;;
11238;SDS011;5677;48.488;13.436;2022-12-29T10:21:57;9.20;;;3.17;;
11238;SDS011;5677;48.488;13.436;2022-12-29T10:24:34;7.43;;;3.00;;
11238;SDS011;5677;48.488;13.436;2022-12-29T10:27:07;7.60;;;3.10;;
11238;SDS011;5677;48.488;13.436;2022-12-29T10:29:39;5.50;;;3.20;;
11238;SDS011;5677;48.488;13.436;2022-12-29T10:32:13;7.73;;;3.10;;
11238;SDS011;5677;48.488;13.436;2022-12-29T10:34:51;8.00;;;3.10;;
11238;SDS011;5677;48.488;13.436;2022-12-29T10:37:24;7.67;;;2.93;;
11238;SDS011;5677;48.488;13.436;2022-12-29T10:39:56;9.00;;;3.47;;
11238;SDS011;5677;48.488;13.436;2022-12-29T10:42:26;6.47;;;3.00;;
11238;SDS011;5677;48.488;13.436;2022-12-29T10:44:54;8.30;;;3.50;;
11238;SDS011;5677;48.488;13.436;2022-12-29T10:47:23;4.50;;;3.90;;
11238;SDS011;5677;48.488;13.436;2022-12-29T10:49:56;7.67;;;3.57;;
11238;SDS011;5677;48.488;13.436;2022-12-29T10:52:23;7.30;;;3.07;;
11238;SDS011;5677;48.488;13.436;2022-12-29T10:54:53;4.57;;;3.70;;
11238;SDS011;5677;48.488;13.436;2022-12-29T10:57:24;7.73;;;4.60;;
11238;SDS011;5677;48.488;13.436;2022-12-29T10:59:54;20.50;;;4.20;;
11238;SDS011;5677;48.488;13.436;2022-12-29T11:05:22;5.67;;;3.63;;
11238;SDS011;5677;48.488;13.436;2022-12-29T11:08:08;7.27;;;3.60;;
11238;SDS011;5677;48.488;13.436;2022-12-29T11:10:37;8.93;;;3.70;;
11238;SDS011;5677;48.488;13.436;2022-12-29T11:13:11;6.23;;;3.30;;
11238;SDS011;5677;48.488;13.436;2022-12-29T11:15:40;7.97;;;3.40;;
11238;SDS011;5677;48.488;13.436;2022-12-29T11:18:18;6.73;;;3.50;;
11238;SDS011;5677;48.488;13.436;2022-12-29T11:20:50;4.00;;;3.40;;
11238;SDS011;5677;48.488;13.436;2022-12-29T11:23:22;6.50;;;3.50;;
11238;SDS011;5677;48.488;13.436;2022-12-29T11:26:12;9.93;;;3.67;;
11238;SDS011;5677;48.488;13.436;2022-12-29T11:28:42;5.40;;;3.60;;
11238;SDS011;5677;48.488;13.436;2022-12-29T11:31:10;4.77;;;3.33;;
11238;SDS011;5677;48.488;13.436;2022-12-29T11:33:41;4.53;;;3.10;;
11238;SDS011;5677;48.488;13.436;2022-12-29T11:36:10;4.40;;;3.27;;
11238;SDS011;5677;48.488;13.436;2022-12-29T11:38:41;7.50;;;3.10;;
11238;SDS011;5677;48.488;13.436;2022-12-29T11:41:13;7.60;;;3.53;;
11238;SDS011;5677;48.488;13.436;2022-12-29T11:43:45;4.07;;;3.07;;
11238;SDS011;5677;48.488;13.436;2022-12-29T11:46:13;11.50;;;3.47;;
11238;SDS011;5677;48.488;13.436;2022-12-29T11:48:42;6.77;;;3.30;;
11238;SDS011;5677;48.488;13.436;2022-12-29T11:51:12;3.80;;;2.90;;
11238;SDS011;5677;48.488;13.436;2022-12-29T11:53:47;7.27;;;3.27;;
11238;SDS011;5677;48.488;13.436;2022-12-29T11:56:19;4.97;;;2.90;;
11238;SDS011;5677;48.488;13.436;2022-12-29T11:58:48;4.93;;;3.10;;
11238;SDS011;5677;48.488;13.436;2022-12-29T12:01:19;4.73;;;2.83;;
11238;SDS011;5677;48.488;13.436;2022-12-29T12:03:52;6.80;;;3.00;;
11238;SDS011;5677;48.488;13.436;2022-12-29T12:06:28;4.57;;;2.57;;
11238;SDS011;5677;48.488;13.436;2022-12-29T12:08:59;4.50;;;2.90;;
11238;SDS011;5677;48.488;13.436;2022-12-29T12:11:31;7.57;;;3.13;;
11238;SDS011;5677;48.488;13.436;2022-12-29T12:14:04;4.57;;;3.20;;
11238;SDS011;5677;48.488;13.436;2022-12-29T12:16:39;4.67;;;2.93;;
11238;SDS011;5677;48.488;13.436;2022-12-29T12:19:10;5.20;;;3.37;;
11238;SDS011;5677;48.488;13.436;2022-12-29T12:21:45;4.30;;;3.40;;
11238;SDS011;5677;48.488;13.436;2022-12-29T12:24:21;7.30;;;3.00;;
11238;SDS011;5677;48.488;13.436;2022-12-29T12:27:01;5.30;;;2.90;;
11238;SDS011;5677;48.488;13.436;2022-12-29T12:29:34;5.23;;;2.87;;
11238;SDS011;5677;48.488;13.436;2022-12-29T12:32:05;3.27;;;2.70;;
11238;SDS011;5677;48.488;13.436;2022-12-29T12:34:41;5.73;;;2.97;;
11238;SDS011;5677;48.488;13.436;2022-12-29T12:37:18;4.87;;;2.60;;
11238;SDS011;5677;48.488;13.436;2022-12-29T12:42:53;4.00;;;2.70;;
11238;SDS011;5677;48.488;13.436;2022-12-29T12:45:34;3.03;;;2.73;;
11238;SDS011;5677;48.488;13.436;2022-12-29T12:48:12;7.63;;;3.30;;
11238;SDS011;5677;48.488;13.436;2022-12-29T12:50:54;4.73;;;2.80;;
11238;SDS011;5677;48.488;13.436;2022-12-29T12:53:38;4.03;;;2.70;;
11238;SDS011;5677;48.488;13.436;2022-12-29T12:59:30;11.93;;;5.17;;
11238;SDS011;5677;48.488;13.436;2022-12-29T13:02:08;7.77;;;5.13;;
11238;SDS011;5677;48.488;13.436;2022-12-29T13:04:47;9.37;;;4.00;;
11238;SDS011;5677;48.488;13.436;2022-12-29T13:07:41;11.20;;;4.03;;
11238;SDS011;5677;48.488;13.436;2022-12-29T13:10:21;8.30;;;3.50;;
11238;SDS011;5677;48.488;13.436;2022-12-29T13:13:00;6.77;;;3.03;;
11238;SDS011;5677;48.488;13.436;2022-12-29T13:15:44;7.90;;;3.43;;
11238;SDS011;5677;48.488;13.436;2022-12-29T13:18:20;7.03;;;3.30;;
11238;SDS011;5677;48.488;13.436;2022-12-29T13:20:54;5.67;;;3.33;;
11238;SDS011;5677;48.488;13.436;2022-12-29T13:23:26;6.07;;;3.63;;
11238;SDS011;5677;48.488;13.436;2022-12-29T13:26:04;4.23;;;2.97;;
11238;SDS011;5677;48.488;13.436;2022-12-29T13:28:41;7.63;;;3.00;;
11238;SDS011;5677;48.488;13.436;2022-12-29T13:31:17;5.87;;;3.50;;
11238;SDS011;5677;48.488;13.436;2022-12-29T13:33:51;5.70;;;3.03;;
11238;SDS011;5677;48.488;13.436;2022-12-29T13:36:27;5.10;;;3.47;;
11238;SDS011;5677;48.488;13.436;2022-12-29T13:39:01;7.30;;;3.40;;
11238;SDS011;5677;48.488;13.436;2022-12-29T13:41:33;6.93;;;3.40;;
11238;SDS011;5677;48.488;13.436;2022-12-29T13:44:05;4.90;;;3.17;;
11238;SDS011;5677;48.488;13.436;2022-12-29T13:46:34;4.57;;;3.17;;
11238;SDS011;5677;48.488;13.436;2022-12-29T13:49:05;4.73;;;3.20;;
11238;SDS011;5677;48.488;13.436;2022-12-29T13:51:40;8.37;;;3.30;;
11238;SDS011;5677;48.488;13.436;2022-12-29T13:54:14;6.50;;;2.93;;
11238;SDS011;5677;48.488;13.436;2022-12-29T13:56:51;3.57;;;2.67;;
11238;SDS011;5677;48.488;13.436;2022-12-29T13:59:23;7.10;;;3.07;;
11238;SDS011;5677;48.488;13.436;2022-12-29T14:02:04;5.57;;;3.03;;
11238;SDS011;5677;48.488;13.436;2022-12-29T14:04:54;4.60;;;2.93;;
11238;SDS011;5677;48.488;13.436;2022-12-29T14:07:23;6.87;;;2.80;;
11238;SDS011;5677;48.488;13.436;2022-12-29T14:09:50;5.87;;;2.90;;
11238;SDS011;5677;48.488;13.436;2022-12-29T14:12:25;4.27;;;2.60;;
11238;SDS011;5677;48.488;13.436;2022-12-29T14:15:02;4.57;;;2.93;;
11238;SDS011;5677;48.488;13.436;2022-12-29T14:17:31;4.47;;;2.50;;
11238;SDS011;5677;48.488;13.436;2022-12-29T14:19:58;4.87;;;2.70;;
11238;SDS011;5677;48.488;13.436;2022-12-29T14:22:25;4.37;;;2.50;;
11238;SDS011;5677;48.488;13.436;2022-12-29T14:24:53;4.87;;;2.60;;
11238;SDS011;5677;48.488;13.436;2022-12-29T14:33:15;4.50;;;2.63;;
11238;SDS011;5677;48.488;13.436;2022-12-29T14:35:44;4.53;;;2.83;;
11238;SDS011;5677;48.488;13.436;2022-12-29T14:38:27;4.57;;;2.50;;
11238;SDS011;5677;48.488;13.436;2022-12-29T14:41:15;4.20;;;2.87;;
11238;SDS011;5677;48.488;13.436;2022-12-29T14:43:52;2.87;;;2.53;;
11238;SDS011;5677;48.488;13.436;2022-12-29T14:46:21;2.73;;;2.27;;
11238;SDS011;5677;48.488;13.436;2022-12-29T14:48:52;4.30;;;2.77;;
11238;SDS011;5677;48.488;13.436;2022-12-29T14:51:32;4.17;;;2.60;;
11238;SDS011;5677;48.488;13.436;2022-12-29T14:57:02;5.13;;;2.77;;
11238;SDS011;5677;48.488;13.436;2022-12-29T14:59:33;3.07;;;2.30;;
11238;SDS011;5677;48.488;13.436;2022-12-29T15:02:03;5.10;;;2.60;;
11238;SDS011;5677;48.488;13.436;2022-12-29T15:04:39;3.53;;;2.60;;
11238;SDS011;5677;48.488;13.436;2022-12-29T15:07:06;2.53;;;2.00;;
11238;SDS011;5677;48.488;13.436;2022-12-29T15:09:36;3.87;;;2.43;;
11238;SDS011;5677;48.488;13.436;2022-12-29T15:12:11;4.37;;;2.43;;
11238;SDS011;5677;48.488;13.436;2022-12-29T15:14:50;3.50;;;2.47;;
11238;SDS011;5677;48.488;13.436;2022-12-29T15:17:23;4.30;;;2.27;;
11238;SDS011;5677;48.488;13.436;2022-12-29T15:19:52;3.13;;;2.10;;
11238;SDS011;5677;48.488;13.436;2022-12-29T15:22:19;3.33;;;2.30;;
11238;SDS011;5677;48.488;13.436;2022-12-29T15:24:46;3.17;;;2.33;;
11238;SDS011;5677;48.488;13.436;2022-12-29T15:27:16;3.70;;;2.43;;
11238;SDS011;5677;48.488;13.436;2022-12-29T15:29:46;4.00;;;2.83;;
11238;SDS011;5677;48.488;13.436;2022-12-29T15:32:18;3.03;;;2.43;;
11238;SDS011;5677;48.488;13.436;2022-12-29T15:34:47;4.40;;;2.27;;